Time;durP1;ratioP1;P1;durP2;ratioP2;P2;SDS_P1;SDS_P2;PMS_P1;PMS_P2;Temp;Humidity;BMP_temperature;BMP_pressure;BME280_temperature;BME280_humidity;BME280_pressure;Samples;Min_cycle;Max_cycle;Signal;HPM_P1;HPM_P2
2021/08/16 00:00:08;;;;;;;4.29;2.97;;;;;;;22.39;72.51;99864.20;;;;-51
2021/08/16 00:03:07;;;;;;;3.40;2.82;;;;;;;22.38;72.51;99860.30;;;;-51
2021/08/16 00:06:07;;;;;;;4.38;2.64;;;;;;;22.38;72.54;99858.98;;;;-51
2021/08/16 00:09:08;;;;;;;4.43;2.88;;;;;;;22.38;72.53;99859.14;;;;-51
2021/08/16 00:12:07;;;;;;;2.93;2.56;;;;;;;22.38;72.53;99849.53;;;;-51
2021/08/16 00:15:08;;;;;;;3.49;2.66;;;;;;;22.37;72.53;99847.98;;;;-51
2021/08/16 00:18:07;;;;;;;3.12;2.82;;;;;;;22.37;72.54;99852.48;;;;-50
2021/08/16 00:21:07;;;;;;;3.26;2.80;;;;;;;22.37;72.54;99844.07;;;;-50
2021/08/16 00:24:07;;;;;;;3.31;2.87;;;;;;;22.36;72.55;99846.84;;;;-57
2021/08/16 00:27:07;;;;;;;3.97;2.77;;;;;;;22.37;72.57;99845.28;;;;-51
2021/08/16 00:30:07;;;;;;;3.61;2.93;;;;;;;22.35;72.57;99841.98;;;;-51
2021/08/16 00:33:08;;;;;;;3.72;2.85;;;;;;;22.35;72.54;99836.27;;;;-51
2021/08/16 00:36:07;;;;;;;5.03;2.91;;;;;;;22.35;72.56;99825.47;;;;-57
2021/08/16 00:39:07;;;;;;;3.08;2.68;;;;;;;22.34;72.58;99820.19;;;;-57
2021/08/16 00:42:09;;;;;;;4.38;2.81;;;;;;;22.34;72.59;99813.17;;;;-51
2021/08/16 00:45:07;;;;;;;3.26;2.83;;;;;;;22.34;72.56;99812.53;;;;-51
2021/08/16 00:48:09;;;;;;;3.73;2.99;;;;;;;22.33;72.59;99815.72;;;;-57
2021/08/16 00:51:07;;;;;;;2.87;2.65;;;;;;;22.33;72.59;99819.23;;;;-51
2021/08/16 00:54:07;;;;;;;3.38;2.83;;;;;;;22.33;72.58;99823.00;;;;-51
2021/08/16 00:57:07;;;;;;;3.03;2.70;;;;;;;22.32;72.61;99826.01;;;;-52
2021/08/16 01:00:07;;;;;;;3.05;2.65;;;;;;;22.33;72.54;99825.59;;;;-51
2021/08/16 01:03:08;;;;;;;3.43;2.78;;;;;;;22.33;72.62;99825.59;;;;-51
2021/08/16 01:06:07;;;;;;;4.25;2.64;;;;;;;22.32;72.61;99822.92;;;;-49
2021/08/16 01:09:07;;;;;;;3.36;2.70;;;;;;;22.32;72.58;99817.53;;;;-50
2021/08/16 01:12:07;;;;;;;2.89;2.65;;;;;;;22.32;72.61;99817.86;;;;-49
2021/08/16 01:15:07;;;;;;;2.98;2.68;;;;;;;22.31;72.59;99818.45;;;;-50
2021/08/16 01:18:07;;;;;;;3.65;2.63;;;;;;;22.30;72.59;99818.93;;;;-57
2021/08/16 01:21:07;;;;;;;2.93;2.63;;;;;;;22.31;72.61;99816.66;;;;-57
2021/08/16 01:24:07;;;;;;;2.75;2.55;;;;;;;22.30;72.59;99811.19;;;;-57
2021/08/16 01:27:08;;;;;;;3.32;2.64;;;;;;;22.30;72.64;99818.78;;;;-50
2021/08/16 01:30:07;;;;;;;3.02;2.70;;;;;;;22.30;72.61;99822.95;;;;-50
2021/08/16 01:33:07;;;;;;;2.85;2.55;;;;;;;22.29;72.61;99820.27;;;;-49
2021/08/16 01:36:07;;;;;;;3.47;2.89;;;;;;;22.29;72.63;99821.09;;;;-50
2021/08/16 01:39:07;;;;;;;3.51;2.71;;;;;;;22.29;72.60;99820.20;;;;-51
2021/08/16 01:42:07;;;;;;;4.73;2.60;;;;;;;22.28;72.61;99817.58;;;;-50
2021/08/16 01:45:08;;;;;;;2.77;2.51;;;;;;;22.28;72.63;99812.43;;;;-51
2021/08/16 01:48:07;;;;;;;3.57;2.78;;;;;;;22.28;72.63;99821.90;;;;-51
2021/08/16 01:51:07;;;;;;;3.51;2.48;;;;;;;22.28;72.62;99821.01;;;;-51
2021/08/16 01:54:07;;;;;;;2.69;2.49;;;;;;;22.28;72.64;99819.55;;;;-51
2021/08/16 01:57:07;;;;;;;3.18;2.50;;;;;;;22.28;72.61;99823.30;;;;-51
2021/08/16 02:00:07;;;;;;;2.99;2.59;;;;;;;22.26;72.59;99827.16;;;;-51
2021/08/16 02:03:07;;;;;;;2.60;2.40;;;;;;;22.27;72.63;99828.06;;;;-51
2021/08/16 02:06:08;;;;;;;3.26;2.41;;;;;;;22.27;72.59;99830.92;;;;-57
2021/08/16 02:09:07;;;;;;;2.68;2.39;;;;;;;22.26;72.64;99829.20;;;;-49
2021/08/16 02:12:07;;;;;;;2.82;2.56;;;;;;;22.26;72.61;99845.04;;;;-51
2021/08/16 02:15:07;;;;;;;3.07;2.77;;;;;;;22.26;72.64;99851.75;;;;-51
2021/08/16 02:18:07;;;;;;;3.59;2.75;;;;;;;22.26;72.60;99851.75;;;;-50
2021/08/16 02:21:08;;;;;;;2.80;2.55;;;;;;;22.26;72.63;99861.55;;;;-51
2021/08/16 02:24:07;;;;;;;6.90;2.61;;;;;;;22.25;72.63;99861.47;;;;-57
2021/08/16 02:27:07;;;;;;;2.52;2.30;;;;;;;22.25;72.64;99860.33;;;;-57
2021/08/16 02:30:07;;;;;;;2.85;2.59;;;;;;;22.25;72.66;99860.33;;;;-51
2021/08/16 02:33:07;;;;;;;2.74;2.54;;;;;;;22.25;72.62;99867.45;;;;-51
2021/08/16 02:36:07;;;;;;;5.17;2.57;;;;;;;22.24;72.68;99870.77;;;;-49
2021/08/16 02:39:07;;;;;;;3.11;2.61;;;;;;;22.24;72.67;99876.25;;;;-52
2021/08/16 02:42:07;;;;;;;2.95;2.38;;;;;;;22.25;72.65;99884.59;;;;-51
2021/08/16 02:45:07;;;;;;;2.99;2.47;;;;;;;22.24;72.67;99883.83;;;;-51
2021/08/16 02:48:07;;;;;;;2.81;2.53;;;;;;;22.24;72.63;99888.33;;;;-52
2021/08/16 02:51:07;;;;;;;2.70;2.50;;;;;;;22.24;72.68;99893.31;;;;-51
2021/08/16 02:54:07;;;;;;;2.63;2.42;;;;;;;22.24;72.66;99896.58;;;;-50
2021/08/16 02:57:07;;;;;;;2.50;2.30;;;;;;;22.24;72.68;99894.71;;;;-57
2021/08/16 03:00:07;;;;;;;2.81;2.51;;;;;;;22.23;72.68;99898.31;;;;-57
2021/08/16 03:03:07;;;;;;;2.70;2.50;;;;;;;22.23;72.67;99901.97;;;;-56
2021/08/16 03:06:07;;;;;;;2.67;2.47;;;;;;;22.23;72.71;99912.36;;;;-51
2021/08/16 03:09:07;;;;;;;2.95;2.70;;;;;;;22.23;72.69;99915.19;;;;-51
2021/08/16 03:12:07;;;;;;;2.69;2.49;;;;;;;22.23;72.75;99921.55;;;;-52
2021/08/16 03:15:07;;;;;;;2.72;2.52;;;;;;;22.23;72.74;99923.19;;;;-49
2021/08/16 03:18:07;;;;;;;2.70;2.50;;;;;;;22.22;72.71;99923.34;;;;-51
2021/08/16 03:21:08;;;;;;;2.60;2.40;;;;;;;22.22;72.77;99928.98;;;;-51
2021/08/16 03:24:07;;;;;;;2.91;2.61;;;;;;;22.22;72.72;99937.64;;;;-51
2021/08/16 03:27:07;;;;;;;2.65;2.45;;;;;;;22.22;72.77;99942.61;;;;-57
2021/08/16 03:30:07;;;;;;;3.68;2.68;;;;;;;22.22;72.77;99942.94;;;;-56
2021/08/16 03:33:07;;;;;;;3.90;2.42;;;;;;;22.21;72.75;99943.61;;;;-57
2021/08/16 03:36:08;;;;;;;2.61;2.41;;;;;;;22.21;72.76;99961.73;;;;-56
2021/08/16 03:39:07;;;;;;;3.06;2.41;;;;;;;22.21;72.76;99961.58;;;;-57
2021/08/16 03:42:07;;;;;;;4.07;2.51;;;;;;;22.21;72.78;99969.41;;;;-57
2021/08/16 03:45:08;;;;;;;3.42;2.51;;;;;;;22.20;72.79;99976.19;;;;-51
2021/08/16 03:48:07;;;;;;;2.60;2.40;;;;;;;22.20;72.80;99978.37;;;;-51
2021/08/16 03:51:08;;;;;;;2.79;2.59;;;;;;;22.20;72.79;99989.73;;;;-50
2021/08/16 03:54:07;;;;;;;2.85;2.65;;;;;;;22.20;72.80;99998.54;;;;-50
2021/08/16 03:57:07;;;;;;;2.59;2.34;;;;;;;22.20;72.79;99998.21;;;;-49
2021/08/16 04:00:08;;;;;;;3.79;2.48;;;;;;;22.19;72.86;100001.00;;;;-49
2021/08/16 04:03:07;;;;;;;2.58;2.38;;;;;;;22.19;72.80;100007.30;;;;-51
2021/08/16 04:06:07;;;;;;;2.59;2.39;;;;;;;22.19;72.85;99995.95;;;;-51
2021/08/16 04:09:08;;;;;;;2.59;2.31;;;;;;;22.19;72.78;99997.02;;;;-51
2021/08/16 04:12:07;;;;;;;2.54;2.34;;;;;;;22.18;72.83;100003.53;;;;-50
2021/08/16 04:15:07;;;;;;;2.71;2.51;;;;;;;22.19;72.87;100006.16;;;;-51
2021/08/16 04:18:07;;;;;;;2.59;2.39;;;;;;;22.18;72.87;100013.00;;;;-57
2021/08/16 04:21:07;;;;;;;9.09;2.77;;;;;;;22.18;73.15;100016.37;;;;-51
2021/08/16 04:24:08;;;;;;;3.02;2.60;;;;;;;22.18;73.02;100018.00;;;;-52
2021/08/16 04:27:07;;;;;;;3.77;2.68;;;;;;;22.19;73.01;100015.63;;;;-51
2021/08/16 04:30:07;;;;;;;3.06;2.48;;;;;;;22.19;73.00;100020.53;;;;-51
2021/08/16 04:33:07;;;;;;;3.52;2.51;;;;;;;22.18;73.01;100025.09;;;;-51
2021/08/16 04:36:07;;;;;;;2.78;2.40;;;;;;;22.18;72.98;100032.70;;;;-51
2021/08/16 04:39:07;;;;;;;3.39;2.44;;;;;;;22.17;72.97;100037.59;;;;-51
2021/08/16 04:42:07;;;;;;;3.70;2.65;;;;;;;22.18;72.98;100039.54;;;;-52
2021/08/16 04:45:07;;;;;;;3.18;2.51;;;;;;;22.17;72.97;100037.27;;;;-57
2021/08/16 04:48:07;;;;;;;3.42;2.34;;;;;;;22.18;72.99;100035.55;;;;-56
2021/08/16 04:51:07;;;;;;;2.86;2.48;;;;;;;22.17;73.03;100033.84;;;;-56
2021/08/16 04:54:07;;;;;;;2.63;2.43;;;;;;;22.18;72.92;100038.16;;;;-56
2021/08/16 04:57:07;;;;;;;2.75;2.50;;;;;;;22.17;73.00;100041.45;;;;-56
2021/08/16 05:00:07;;;;;;;3.11;2.43;;;;;;;22.17;72.96;100052.06;;;;-51
2021/08/16 05:03:07;;;;;;;2.53;2.27;;;;;;;22.17;72.96;100055.00;;;;-48
2021/08/16 05:06:08;;;;;;;3.77;2.44;;;;;;;22.19;73.10;100058.73;;;;-49
2021/08/16 05:09:07;;;;;;;4.33;2.49;;;;;;;22.20;73.06;100058.94;;;;-53
2021/08/16 05:12:07;;;;;;;5.75;2.50;;;;;;;22.21;73.23;100064.82;;;;-52
2021/08/16 05:15:07;;;;;;;3.91;2.57;;;;;;;22.22;73.23;100061.53;;;;-50
2021/08/16 05:18:07;;;;;;;4.87;2.43;;;;;;;22.23;73.13;100075.09;;;;-50
2021/08/16 05:21:07;;;;;;;3.02;2.41;;;;;;;22.23;73.13;100080.16;;;;-51
2021/08/16 05:24:07;;;;;;;3.23;2.47;;;;;;;22.23;73.14;100081.30;;;;-50
2021/08/16 05:27:07;;;;;;;2.83;2.39;;;;;;;22.22;73.11;100087.64;;;;-49
2021/08/16 05:30:07;;;;;;;2.88;2.29;;;;;;;22.23;73.17;100088.01;;;;-50
2021/08/16 05:33:07;;;;;;;2.73;2.47;;;;;;;22.23;73.14;100092.64;;;;-50
2021/08/16 05:36:07;;;;;;;2.99;2.59;;;;;;;22.23;73.12;100098.77;;;;-48
2021/08/16 05:39:07;;;;;;;4.61;2.48;;;;;;;22.25;73.19;100096.66;;;;-49
2021/08/16 05:42:07;;;;;;;5.41;2.50;;;;;;;22.26;73.34;100102.16;;;;-48
2021/08/16 05:45:07;;;;;;;3.78;2.39;;;;;;;22.28;73.38;100105.81;;;;-49
2021/08/16 05:48:07;;;;;;;3.80;2.57;;;;;;;22.29;73.46;100102.89;;;;-50
2021/08/16 05:51:07;;;;;;;2.94;2.43;;;;;;;22.30;73.41;100103.59;;;;-51
2021/08/16 05:54:07;;;;;;;2.95;2.33;;;;;;;22.31;73.56;100104.58;;;;-53
2021/08/16 05:57:07;;;;;;;2.69;2.47;;;;;;;22.33;73.61;100106.76;;;;-60
2021/08/16 06:00:07;;;;;;;3.23;2.55;;;;;;;22.36;73.44;100108.84;;;;-62
2021/08/16 06:03:07;;;;;;;6.37;2.66;;;;;;;22.37;73.56;100106.86;;;;-56
2021/08/16 06:06:07;;;;;;;9.95;2.78;;;;;;;22.38;73.73;100110.19;;;;-53
2021/08/16 06:09:07;;;;;;;4.31;2.63;;;;;;;22.38;73.63;100115.69;;;;-54
2021/08/16 06:12:07;;;;;;;7.53;2.51;;;;;;;22.39;73.56;100121.20;;;;-50
2021/08/16 06:15:08;;;;;;;5.20;2.52;;;;;;;22.40;73.53;100124.23;;;;-49
2021/08/16 06:18:07;;;;;;;4.33;2.57;;;;;;;22.41;73.51;100131.31;;;;-53
2021/08/16 06:21:07;;;;;;;4.47;2.62;;;;;;;22.42;73.54;100133.42;;;;-51
2021/08/16 06:24:07;;;;;;;3.93;2.59;;;;;;;22.44;73.56;100138.16;;;;-57
2021/08/16 06:27:07;;;;;;;3.11;2.55;;;;;;;22.44;73.59;100141.73;;;;-59
2021/08/16 06:30:07;;;;;;;4.17;2.53;;;;;;;22.46;73.53;100143.84;;;;-50
2021/08/16 06:33:07;;;;;;;4.49;2.60;;;;;;;22.47;73.69;100153.47;;;;-50
2021/08/16 06:36:07;;;;;;;2.73;2.40;;;;;;;22.48;73.53;100158.92;;;;-53
2021/08/16 06:39:08;;;;;;;3.64;2.44;;;;;;;22.49;73.47;100157.60;;;;-48
2021/08/16 06:42:07;;;;;;;4.73;2.49;;;;;;;22.50;73.54;100169.03;;;;-50
2021/08/16 06:45:07;;;;;;;3.46;2.50;;;;;;;22.50;73.48;100176.13;;;;-51
2021/08/16 06:48:08;;;;;;;4.71;2.60;;;;;;;22.52;73.32;100177.02;;;;-51
2021/08/16 06:51:07;;;;;;;3.55;2.60;;;;;;;22.52;73.55;100179.05;;;;-53
2021/08/16 06:54:07;;;;;;;5.87;2.62;;;;;;;22.53;73.43;100192.51;;;;-55
2021/08/16 06:57:07;;;;;;;5.32;2.62;;;;;;;22.53;73.49;100194.30;;;;-51
2021/08/16 07:00:07;;;;;;;4.51;2.44;;;;;;;22.56;73.76;100190.86;;;;-58
2021/08/16 07:03:07;;;;;;;9.82;2.83;;;;;;;22.54;73.18;100190.38;;;;-50
2021/08/16 07:06:07;;;;;;;7.55;2.71;;;;;;;22.54;73.01;100195.12;;;;-48
2021/08/16 07:09:07;;;;;;;5.81;2.77;;;;;;;22.54;73.06;100198.06;;;;-58
2021/08/16 07:12:07;;;;;;;6.12;2.59;;;;;;;22.55;73.07;100199.84;;;;-57
2021/08/16 07:15:07;;;;;;;7.05;2.91;;;;;;;22.54;73.14;100199.03;;;;-50
2021/08/16 07:18:07;;;;;;;3.61;2.65;;;;;;;22.54;73.11;100198.05;;;;-50
2021/08/16 07:21:08;;;;;;;7.17;2.91;;;;;;;22.53;73.03;100200.01;;;;-50
2021/08/16 07:24:07;;;;;;;4.90;2.79;;;;;;;22.53;73.09;100201.31;;;;-50
2021/08/16 07:27:07;;;;;;;6.13;2.74;;;;;;;22.53;73.05;100199.30;;;;-50
2021/08/16 07:30:07;;;;;;;6.85;2.91;;;;;;;22.52;72.98;100198.09;;;;-50
2021/08/16 07:33:07;;;;;;;6.74;2.73;;;;;;;22.52;72.97;100203.80;;;;-55
2021/08/16 07:36:07;;;;;;;4.57;2.89;;;;;;;22.53;72.98;100206.64;;;;-50
2021/08/16 07:39:07;;;;;;;5.82;2.87;;;;;;;22.53;72.95;100206.47;;;;-51
2021/08/16 07:42:09;;;;;;;7.28;3.02;;;;;;;22.54;72.97;100212.98;;;;-48
2021/08/16 07:45:07;;;;;;;5.08;2.75;;;;;;;22.54;72.99;100216.02;;;;-52
2021/08/16 07:48:07;;;;;;;4.89;2.71;;;;;;;22.55;72.95;100212.02;;;;-51
2021/08/16 07:51:07;;;;;;;3.66;2.70;;;;;;;22.56;72.89;100214.59;;;;-56
2021/08/16 07:54:07;;;;;;;6.23;2.78;;;;;;;22.56;73.10;100213.97;;;;-54
2021/08/16 07:57:07;;;;;;;6.03;2.69;;;;;;;22.57;73.02;100215.73;;;;-49
2021/08/16 08:00:08;;;;;;;6.58;2.71;;;;;;;22.56;73.03;100217.80;;;;-48
2021/08/16 08:03:07;;;;;;;5.63;2.77;;;;;;;22.58;73.01;100216.05;;;;-46
2021/08/16 08:06:08;;;;;;;4.83;2.71;;;;;;;22.59;72.99;100216.22;;;;-51
2021/08/16 08:09:07;;;;;;;5.97;2.58;;;;;;;22.59;72.96;100215.39;;;;-57
2021/08/16 08:12:07;;;;;;;5.60;2.69;;;;;;;22.60;73.02;100212.87;;;;-63
2021/08/16 08:15:07;;;;;;;6.05;2.53;;;;;;;22.61;73.02;100208.11;;;;-54
2021/08/16 08:18:10;;;;;;;5.89;2.57;;;;;;;22.61;73.10;100200.68;;;;-54
2021/08/16 08:21:07;;;;;;;4.07;2.73;;;;;;;22.62;72.99;100197.64;;;;-52
2021/08/16 08:24:07;;;;;;;7.79;2.75;;;;;;;22.62;72.88;100189.22;;;;-56
2021/08/16 08:27:08;;;;;;;4.94;2.88;;;;;;;22.63;72.58;100185.61;;;;-57
2021/08/16 08:30:07;;;;;;;8.38;2.95;;;;;;;22.63;72.47;100192.73;;;;-56
2021/08/16 08:33:07;;;;;;;8.21;3.02;;;;;;;22.62;72.51;100182.94;;;;-56
2021/08/16 08:36:07;;;;;;;4.18;2.43;;;;;;;22.61;72.57;100195.92;;;;-56
2021/08/16 08:39:07;;;;;;;4.96;2.63;;;;;;;22.60;72.52;100194.90;;;;-47
2021/08/16 08:42:07;;;;;;;6.51;2.56;;;;;;;22.59;72.47;100194.89;;;;-48
2021/08/16 08:45:07;;;;;;;3.88;2.45;;;;;;;22.58;72.47;100194.58;;;;-56
2021/08/16 08:48:07;;;;;;;6.36;2.69;;;;;;;22.58;72.54;100198.08;;;;-57
2021/08/16 08:51:07;;;;;;;7.88;2.67;;;;;;;22.59;72.51;100193.52;;;;-51
2021/08/16 08:54:07;;;;;;;4.39;2.78;;;;;;;22.60;72.57;100194.90;;;;-54
2021/08/16 08:57:07;;;;;;;4.81;2.56;;;;;;;22.61;72.47;100199.53;;;;-51
2021/08/16 09:00:08;;;;;;;7.48;2.93;;;;;;;22.62;72.49;100200.66;;;;-47
2021/08/16 09:03:07;;;;;;;6.60;2.59;;;;;;;22.63;72.55;100204.91;;;;-48
2021/08/16 09:06:07;;;;;;;6.69;2.59;;;;;;;22.62;72.44;100204.35;;;;-52
2021/08/16 09:09:08;;;;;;;8.56;2.73;;;;;;;22.64;72.48;100196.64;;;;-53
2021/08/16 09:12:07;;;;;;;6.20;2.85;;;;;;;22.64;72.43;100193.86;;;;-49
2021/08/16 09:15:07;;;;;;;9.01;2.72;;;;;;;22.67;72.33;100191.30;;;;-46
2021/08/16 09:18:07;;;;;;;7.91;2.68;;;;;;;22.68;72.51;100190.14;;;;-45
2021/08/16 09:21:08;;;;;;;5.59;2.52;;;;;;;22.71;72.47;100195.66;;;;-47
2021/08/16 09:24:07;;;;;;;6.74;2.88;;;;;;;22.72;72.18;100195.15;;;;-56
2021/08/16 09:27:08;;;;;;;8.71;2.79;;;;;;;22.72;72.44;100197.59;;;;-50
2021/08/16 09:30:07;;;;;;;6.94;2.73;;;;;;;22.72;72.47;100193.63;;;;-50
2021/08/16 09:33:07;;;;;;;6.12;2.83;;;;;;;22.72;72.44;100188.94;;;;-53
2021/08/16 09:36:07;;;;;;;5.82;2.66;;;;;;;22.73;72.49;100190.17;;;;-53
2021/08/16 09:39:07;;;;;;;4.79;2.63;;;;;;;22.72;72.49;100192.05;;;;-52
2021/08/16 09:42:07;;;;;;;4.75;2.62;;;;;;;22.73;72.54;100178.83;;;;-57
2021/08/16 09:45:07;;;;;;;3.10;2.50;;;;;;;22.73;72.45;100185.27;;;;-47
2021/08/16 09:48:07;;;;;;;6.93;2.79;;;;;;;22.74;72.48;100176.67;;;;-49
2021/08/16 09:51:07;;;;;;;5.01;2.55;;;;;;;22.74;72.44;100174.14;;;;-59
2021/08/16 09:54:07;;;;;;;4.37;2.61;;;;;;;22.74;72.45;100174.16;;;;-51
2021/08/16 09:57:07;;;;;;;3.77;2.43;;;;;;;22.73;72.32;100174.64;;;;-57
2021/08/16 10:00:07;;;;;;;5.35;2.47;;;;;;;22.73;72.34;100178.00;;;;-52
2021/08/16 10:03:11;;;;;;;4.74;2.55;;;;;;;22.73;72.35;100168.53;;;;-57
2021/08/16 10:06:07;;;;;;;8.42;2.77;;;;;;;22.71;72.35;100169.92;;;;-61
2021/08/16 10:09:07;;;;;;;8.87;2.81;;;;;;;22.70;72.41;100177.14;;;;-64
2021/08/16 10:12:07;;;;;;;4.12;2.56;;;;;;;22.71;72.33;100177.13;;;;-50
2021/08/16 10:15:07;;;;;;;6.61;2.58;;;;;;;22.71;72.29;100179.48;;;;-48
2021/08/16 10:18:07;;;;;;;3.67;2.53;;;;;;;22.72;72.23;100179.63;;;;-51
2021/08/16 10:21:07;;;;;;;6.81;2.43;;;;;;;22.73;72.26;100179.31;;;;-48
2021/08/16 10:24:07;;;;;;;5.25;2.49;;;;;;;22.73;72.25;100182.32;;;;-49
2021/08/16 10:27:08;;;;;;;4.57;2.55;;;;;;;22.73;72.25;100181.10;;;;-48
2021/08/16 10:30:07;;;;;;;4.38;2.35;;;;;;;22.74;72.25;100187.53;;;;-50
2021/08/16 10:33:07;;;;;;;3.72;2.45;;;;;;;22.74;72.28;100181.25;;;;-50
2021/08/16 10:36:07;;;;;;;5.61;2.20;;;;;;;22.74;72.33;100174.88;;;;-49
2021/08/16 10:39:07;;;;;;;4.52;2.30;;;;;;;22.74;72.24;100168.44;;;;-49
2021/08/16 10:42:07;;;;;;;6.69;2.47;;;;;;;22.74;72.29;100163.61;;;;-60
2021/08/16 10:45:09;;;;;;;3.35;2.30;;;;;;;22.76;72.29;100166.36;;;;-60
2021/08/16 10:48:07;;;;;;;3.28;2.42;;;;;;;22.75;72.24;100156.73;;;;-54
2021/08/16 10:51:07;;;;;;;4.73;2.49;;;;;;;22.75;72.27;100153.21;;;;-59
2021/08/16 10:54:07;;;;;;;6.80;2.33;;;;;;;22.75;72.21;100150.53;;;;-50
2021/08/16 10:57:07;;;;;;;4.99;2.15;;;;;;;22.76;72.15;100151.33;;;;-51
2021/08/16 11:00:07;;;;;;;3.69;2.39;;;;;;;22.76;72.21;100147.80;;;;-52
2021/08/16 11:03:07;;;;;;;2.74;2.30;;;;;;;22.76;72.21;100138.66;;;;-49
2021/08/16 11:06:07;;;;;;;2.75;2.25;;;;;;;22.76;72.27;100140.62;;;;-51
2021/08/16 11:09:07;;;;;;;3.81;2.43;;;;;;;22.75;72.21;100136.70;;;;-51
2021/08/16 11:12:07;;;;;;;3.59;2.32;;;;;;;22.76;72.21;100137.83;;;;-50
2021/08/16 11:15:07;;;;;;;3.41;2.45;;;;;;;22.76;71.97;100129.16;;;;-50
2021/08/16 11:18:07;;;;;;;4.65;2.43;;;;;;;22.76;72.06;100132.45;;;;-50
2021/08/16 11:21:10;;;;;;;4.00;2.39;;;;;;;22.75;72.21;100128.16;;;;-50
2021/08/16 11:24:07;;;;;;;2.99;2.27;;;;;;;22.73;72.18;100119.18;;;;-52
2021/08/16 11:27:07;;;;;;;5.11;2.37;;;;;;;22.72;72.07;100123.59;;;;-52
2021/08/16 11:30:07;;;;;;;3.25;2.48;;;;;;;22.72;72.17;100126.36;;;;-50
2021/08/16 11:33:07;;;;;;;4.67;2.27;;;;;;;22.71;72.13;100124.83;;;;-51
2021/08/16 11:36:07;;;;;;;2.87;2.20;;;;;;;22.70;72.15;100125.59;;;;-50
2021/08/16 11:39:07;;;;;;;3.58;2.31;;;;;;;22.70;72.12;100122.56;;;;-50
2021/08/16 11:42:07;;;;;;;2.61;2.14;;;;;;;22.69;72.10;100125.75;;;;-52
2021/08/16 11:45:08;;;;;;;2.97;2.26;;;;;;;22.69;72.15;100121.84;;;;-60
2021/08/16 11:48:08;;;;;;;2.83;2.16;;;;;;;22.69;72.05;100113.84;;;;-60
2021/08/16 11:51:07;;;;;;;3.79;2.13;;;;;;;22.68;72.09;100113.34;;;;-60
2021/08/16 11:54:07;;;;;;;3.71;2.19;;;;;;;22.68;72.09;100113.02;;;;-53
2021/08/16 11:57:07;;;;;;;2.77;2.17;;;;;;;22.67;72.10;100106.50;;;;-53
2021/08/16 12:00:07;;;;;;;4.15;2.53;;;;;;;22.69;71.99;100101.02;;;;-52
2021/08/16 12:03:07;;;;;;;3.79;2.31;;;;;;;22.69;71.93;100096.45;;;;-52
2021/08/16 12:06:07;;;;;;;2.99;2.30;;;;;;;22.70;71.84;100100.17;;;;-55
2021/08/16 12:09:07;;;;;;;2.98;2.09;;;;;;;22.70;71.90;100095.44;;;;-54
2021/08/16 12:12:07;;;;;;;2.86;2.20;;;;;;;22.70;71.91;100088.10;;;;-57
2021/08/16 12:15:09;;;;;;;2.63;2.30;;;;;;;22.69;71.93;100093.16;;;;-56
2021/08/16 12:18:07;;;;;;;3.22;2.43;;;;;;;22.70;71.89;100092.02;;;;-54
2021/08/16 12:21:07;;;;;;;5.05;2.30;;;;;;;22.72;71.96;100091.16;;;;-50
2021/08/16 12:24:07;;;;;;;5.20;2.49;;;;;;;22.73;72.13;100089.12;;;;-50
2021/08/16 12:27:07;;;;;;;9.85;2.47;;;;;;;22.75;71.54;100086.40;;;;-51
2021/08/16 12:30:07;;;;;;;11.55;2.37;;;;;;;22.75;71.76;100087.37;;;;-60
2021/08/16 12:33:07;;;;;;;5.47;2.47;;;;;;;22.76;71.88;100091.20;;;;-49
2021/08/16 12:36:07;;;;;;;6.72;2.81;;;;;;;22.76;71.88;100087.35;;;;-64
2021/08/16 12:39:07;;;;;;;6.53;2.54;;;;;;;22.76;71.95;100096.92;;;;-50
2021/08/16 12:42:07;;;;;;;11.12;2.84;;;;;;;22.76;72.03;100093.22;;;;-53
2021/08/16 12:45:07;;;;;;;8.17;2.82;;;;;;;22.78;71.81;100095.91;;;;-52
2021/08/16 12:48:07;;;;;;;8.19;2.71;;;;;;;22.79;71.42;100101.87;;;;-53
2021/08/16 12:51:07;;;;;;;9.02;2.64;;;;;;;22.79;71.81;100104.47;;;;-53
2021/08/16 12:54:07;;;;;;;6.54;2.47;;;;;;;22.80;71.86;100103.08;;;;-54
2021/08/16 12:57:07;;;;;;;7.81;2.76;;;;;;;22.79;71.89;100102.59;;;;-64
2021/08/16 13:00:07;;;;;;;5.90;2.58;;;;;;;22.79;71.90;100096.64;;;;-59
2021/08/16 13:03:07;;;;;;;11.69;3.51;;;;;;;22.79;71.95;100100.55;;;;-50
2021/08/16 13:06:07;;;;;;;7.62;2.89;;;;;;;22.80;71.93;100104.70;;;;-58
2021/08/16 13:09:07;;;;;;;13.51;9.42;;;;;;;22.79;71.99;100096.39;;;;-49
2021/08/16 13:12:07;;;;;;;23.87;19.77;;;;;;;22.80;71.93;100092.86;;;;-52
2021/08/16 13:15:07;;;;;;;5.93;2.45;;;;;;;22.79;71.98;100096.16;;;;-60
2021/08/16 13:18:07;;;;;;;6.99;2.36;;;;;;;22.78;72.01;100089.13;;;;-51
2021/08/16 13:21:07;;;;;;;9.85;2.59;;;;;;;22.77;71.98;100078.30;;;;-54
2021/08/16 13:24:07;;;;;;;7.19;2.48;;;;;;;22.77;71.79;100084.89;;;;-58
2021/08/16 13:27:07;;;;;;;5.58;2.43;;;;;;;22.79;71.71;100083.49;;;;-52
2021/08/16 13:30:09;;;;;;;5.97;2.48;;;;;;;22.79;71.67;100084.13;;;;-52
2021/08/16 13:33:07;;;;;;;5.36;2.41;;;;;;;22.80;71.47;100073.83;;;;-50
2021/08/16 13:36:07;;;;;;;4.14;2.35;;;;;;;22.79;71.58;100087.15;;;;-53
2021/08/16 13:39:07;;;;;;;6.34;2.39;;;;;;;22.79;71.57;100089.03;;;;-51
2021/08/16 13:42:07;;;;;;;6.63;2.24;;;;;;;22.80;71.43;100087.22;;;;-51
2021/08/16 13:45:07;;;;;;;6.37;2.29;;;;;;;22.80;71.30;100083.05;;;;-52
2021/08/16 13:48:07;;;;;;;3.31;2.15;;;;;;;22.80;71.43;100084.69;;;;-53
2021/08/16 13:51:10;;;;;;;4.65;2.43;;;;;;;22.79;71.31;100078.66;;;;-58
2021/08/16 13:54:07;;;;;;;5.44;2.43;;;;;;;22.80;71.24;100079.04;;;;-52
2021/08/16 13:57:07;;;;;;;5.45;2.19;;;;;;;22.80;71.25;100082.70;;;;-52
2021/08/16 14:00:07;;;;;;;4.13;2.19;;;;;;;22.80;71.08;100086.73;;;;-53
2021/08/16 14:03:07;;;;;;;8.23;3.74;;;;;;;22.78;71.15;100078.58;;;;-64
2021/08/16 14:06:07;;;;;;;19.14;17.58;;;;;;;22.77;71.20;100075.09;;;;-63
2021/08/16 14:09:07;;;;;;;5.09;2.13;;;;;;;22.76;71.26;100076.23;;;;-63
2021/08/16 14:12:07;;;;;;;4.70;2.36;;;;;;;22.76;71.33;100075.34;;;;-63
2021/08/16 14:15:07;;;;;;;3.67;2.17;;;;;;;22.75;71.29;100072.35;;;;-62
2021/08/16 14:18:07;;;;;;;9.15;2.27;;;;;;;22.74;71.37;100075.94;;;;-64
2021/08/16 14:21:07;;;;;;;4.59;2.32;;;;;;;22.74;71.38;100083.95;;;;-62
2021/08/16 14:24:07;;;;;;;8.53;2.30;;;;;;;22.73;71.37;100083.23;;;;-52
2021/08/16 14:27:07;;;;;;;4.15;2.49;;;;;;;22.75;71.35;100094.25;;;;-51
2021/08/16 14:30:07;;;;;;;4.74;2.29;;;;;;;22.75;71.36;100101.58;;;;-59
2021/08/16 14:33:07;;;;;;;4.40;2.18;;;;;;;22.76;71.39;100096.98;;;;-50
2021/08/16 14:36:07;;;;;;;4.56;2.23;;;;;;;22.78;71.22;100096.89;;;;-51
2021/08/16 14:39:07;;;;;;;7.29;2.25;;;;;;;22.77;71.17;100100.68;;;;-53
2021/08/16 14:42:07;;;;;;;5.17;2.11;;;;;;;22.77;71.44;100108.25;;;;-51
2021/08/16 14:45:07;;;;;;;4.14;2.10;;;;;;;22.78;71.40;100116.08;;;;-53
2021/08/16 14:48:07;;;;;;;4.63;4.14;;;;;;;22.78;71.37;100112.48;;;;-53
2021/08/16 14:51:07;;;;;;;3.86;2.32;;;;;;;22.78;71.40;100112.33;;;;-51
2021/08/16 14:54:07;;;;;;;4.64;2.24;;;;;;;22.78;71.45;100118.05;;;;-49
2021/08/16 14:57:07;;;;;;;4.32;1.96;;;;;;;22.76;71.41;100128.27;;;;-53
2021/08/16 15:00:07;;;;;;;4.42;2.11;;;;;;;22.74;71.50;100131.16;;;;-52
2021/08/16 15:03:09;;;;;;;4.91;2.19;;;;;;;22.76;71.49;100136.86;;;;-53
2021/08/16 15:06:07;;;;;;;4.12;2.26;;;;;;;22.77;71.41;100125.42;;;;-63
2021/08/16 15:09:07;;;;;;;4.71;2.21;;;;;;;22.78;71.34;100125.80;;;;-62
2021/08/16 15:12:07;;;;;;;5.16;2.24;;;;;;;22.79;71.39;100132.34;;;;-53
2021/08/16 15:15:07;;;;;;;2.75;2.09;;;;;;;22.80;71.34;100133.70;;;;-51
2021/08/16 15:18:07;;;;;;;4.03;2.18;;;;;;;22.80;71.35;100137.12;;;;-57
2021/08/16 15:21:09;;;;;;;4.46;2.10;;;;;;;22.80;71.30;100133.29;;;;-60
2021/08/16 15:24:07;;;;;;;4.36;2.08;;;;;;;22.81;71.06;100145.23;;;;-53
2021/08/16 15:27:07;;;;;;;3.09;1.99;;;;;;;22.80;71.34;100145.14;;;;-53
2021/08/16 15:30:09;;;;;;;3.45;2.12;;;;;;;22.79;71.32;100150.81;;;;-53
2021/08/16 15:33:08;;;;;;;3.98;2.09;;;;;;;22.78;71.34;100157.75;;;;-52
2021/08/16 15:36:07;;;;;;;3.53;2.13;;;;;;;22.76;71.36;100158.91;;;;-53
2021/08/16 15:39:07;;;;;;;3.77;2.01;;;;;;;22.76;71.36;100165.62;;;;-53
2021/08/16 15:42:07;;;;;;;3.31;2.02;;;;;;;22.75;71.35;100171.92;;;;-53
2021/08/16 15:45:07;;;;;;;2.75;2.11;;;;;;;22.74;71.41;100167.62;;;;-50
2021/08/16 15:48:07;;;;;;;2.91;2.00;;;;;;;22.74;71.38;100168.92;;;;-50
2021/08/16 15:51:07;;;;;;;2.52;1.90;;;;;;;22.74;71.35;100172.58;;;;-51
2021/08/16 15:54:07;;;;;;;2.72;2.00;;;;;;;22.74;71.41;100166.22;;;;-50
2021/08/16 15:57:07;;;;;;;3.69;2.03;;;;;;;22.73;71.41;100173.91;;;;-51
2021/08/16 16:00:07;;;;;;;4.27;2.02;;;;;;;22.74;71.47;100172.52;;;;-51
2021/08/16 16:03:07;;;;;;;3.17;2.07;;;;;;;22.76;71.39;100175.51;;;;-51
2021/08/16 16:06:07;;;;;;;2.81;1.99;;;;;;;22.77;71.40;100182.77;;;;-52
2021/08/16 16:09:07;;;;;;;4.46;2.10;;;;;;;22.78;71.41;100185.45;;;;-51
2021/08/16 16:12:07;;;;;;;3.51;2.10;;;;;;;22.79;71.42;100186.19;;;;-55
2021/08/16 16:15:07;;;;;;;2.76;1.95;;;;;;;22.80;71.49;100189.59;;;;-52
2021/08/16 16:18:07;;;;;;;3.66;2.75;;;;;;;22.80;71.49;100190.39;;;;-52
2021/08/16 16:21:07;;;;;;;3.78;2.05;;;;;;;22.82;71.58;100194.88;;;;-52
2021/08/16 16:24:07;;;;;;;3.77;2.00;;;;;;;22.83;71.58;100193.09;;;;-61
2021/08/16 16:27:07;;;;;;;3.81;2.03;;;;;;;22.84;71.72;100190.86;;;;-61
2021/08/16 16:30:07;;;;;;;3.52;2.02;;;;;;;22.84;71.75;100185.80;;;;-54
2021/08/16 16:33:07;;;;;;;4.64;1.90;;;;;;;22.84;71.75;100191.75;;;;-55
2021/08/16 16:36:07;;;;;;;3.17;1.95;;;;;;;22.85;71.86;100188.88;;;;-55
2021/08/16 16:39:07;;;;;;;2.57;1.88;;;;;;;22.86;71.97;100187.31;;;;-48
2021/08/16 16:42:07;;;;;;;5.31;2.05;;;;;;;22.87;71.95;100185.91;;;;-53
2021/08/16 16:45:07;;;;;;;2.35;1.90;;;;;;;22.87;72.00;100186.23;;;;-50